sensor_id;sensor_type;location;lat;lon;timestamp;P1;durP1;ratioP1;P2;durP2;ratioP2
805;SDS011;385;48.502;9.230;2022-07-29T00:01:02;87.03;;;10.50;;
805;SDS011;385;48.502;9.230;2022-07-29T00:03:29;104.30;;;11.33;;
805;SDS011;385;48.502;9.230;2022-07-29T00:05:57;60.33;;;9.80;;
805;SDS011;385;48.502;9.230;2022-07-29T00:08:24;95.67;;;11.20;;
805;SDS011;385;48.502;9.230;2022-07-29T00:10:51;76.97;;;10.23;;
805;SDS011;385;48.502;9.230;2022-07-29T00:13:18;68.13;;;9.60;;
805;SDS011;385;48.502;9.230;2022-07-29T00:15:46;66.83;;;9.13;;
805;SDS011;385;48.502;9.230;2022-07-29T00:18:13;57.43;;;9.17;;
805;SDS011;385;48.502;9.230;2022-07-29T00:20:40;78.83;;;9.73;;
805;SDS011;385;48.502;9.230;2022-07-29T00:23:08;68.23;;;10.17;;
805;SDS011;385;48.502;9.230;2022-07-29T00:25:35;59.33;;;9.30;;
805;SDS011;385;48.502;9.230;2022-07-29T00:28:03;72.70;;;9.53;;
805;SDS011;385;48.502;9.230;2022-07-29T00:30:30;69.03;;;10.00;;
805;SDS011;385;48.502;9.230;2022-07-29T00:32:57;66.27;;;10.27;;
805;SDS011;385;48.502;9.230;2022-07-29T00:35:24;75.60;;;9.37;;
805;SDS011;385;48.502;9.230;2022-07-29T00:38:11;78.17;;;10.53;;
805;SDS011;385;48.502;9.230;2022-07-29T00:40:38;90.33;;;10.33;;
805;SDS011;385;48.502;9.230;2022-07-29T00:43:05;66.50;;;8.90;;
805;SDS011;385;48.502;9.230;2022-07-29T00:45:32;60.80;;;9.13;;
805;SDS011;385;48.502;9.230;2022-07-29T00:47:59;66.67;;;10.33;;
805;SDS011;385;48.502;9.230;2022-07-29T00:50:26;66.43;;;9.67;;
805;SDS011;385;48.502;9.230;2022-07-29T00:52:54;62.17;;;10.10;;
805;SDS011;385;48.502;9.230;2022-07-29T00:55:22;69.00;;;9.47;;
805;SDS011;385;48.502;9.230;2022-07-29T00:57:49;72.10;;;9.23;;
805;SDS011;385;48.502;9.230;2022-07-29T01:00:18;58.27;;;9.30;;
805;SDS011;385;48.502;9.230;2022-07-29T01:02:46;65.93;;;8.83;;
805;SDS011;385;48.502;9.230;2022-07-29T01:05:14;61.50;;;9.90;;
805;SDS011;385;48.502;9.230;2022-07-29T01:07:41;60.80;;;8.90;;
805;SDS011;385;48.502;9.230;2022-07-29T01:10:10;44.83;;;8.13;;
805;SDS011;385;48.502;9.230;2022-07-29T01:12:40;85.40;;;9.67;;
805;SDS011;385;48.502;9.230;2022-07-29T01:15:08;77.97;;;9.23;;
805;SDS011;385;48.502;9.230;2022-07-29T01:17:36;89.57;;;9.70;;
805;SDS011;385;48.502;9.230;2022-07-29T01:20:07;76.33;;;8.60;;
805;SDS011;385;48.502;9.230;2022-07-29T01:22:42;62.57;;;8.67;;
805;SDS011;385;48.502;9.230;2022-07-29T01:25:22;76.70;;;9.40;;
805;SDS011;385;48.502;9.230;2022-07-29T01:28:14;66.10;;;8.87;;
805;SDS011;385;48.502;9.230;2022-07-29T01:30:49;69.60;;;8.77;;
805;SDS011;385;48.502;9.230;2022-07-29T01:33:18;78.07;;;9.77;;
805;SDS011;385;48.502;9.230;2022-07-29T01:36:01;67.63;;;9.83;;
805;SDS011;385;48.502;9.230;2022-07-29T01:38:32;84.63;;;10.43;;
805;SDS011;385;48.502;9.230;2022-07-29T01:41:02;56.53;;;9.37;;
805;SDS011;385;48.502;9.230;2022-07-29T01:43:31;63.93;;;9.63;;
805;SDS011;385;48.502;9.230;2022-07-29T01:46:01;83.57;;;10.83;;
805;SDS011;385;48.502;9.230;2022-07-29T01:48:31;64.80;;;10.60;;
805;SDS011;385;48.502;9.230;2022-07-29T01:51:02;58.53;;;9.30;;
805;SDS011;385;48.502;9.230;2022-07-29T01:53:30;62.77;;;9.53;;
805;SDS011;385;48.502;9.230;2022-07-29T01:56:02;69.20;;;10.27;;
805;SDS011;385;48.502;9.230;2022-07-29T01:58:31;72.87;;;9.93;;
805;SDS011;385;48.502;9.230;2022-07-29T02:00:58;101.10;;;11.87;;
805;SDS011;385;48.502;9.230;2022-07-29T02:03:28;61.00;;;9.77;;
805;SDS011;385;48.502;9.230;2022-07-29T02:05:57;61.80;;;9.30;;
805;SDS011;385;48.502;9.230;2022-07-29T02:08:25;78.57;;;9.70;;
805;SDS011;385;48.502;9.230;2022-07-29T02:10:52;67.43;;;9.90;;
805;SDS011;385;48.502;9.230;2022-07-29T02:13:20;72.80;;;10.10;;
805;SDS011;385;48.502;9.230;2022-07-29T02:15:48;71.30;;;8.50;;
805;SDS011;385;48.502;9.230;2022-07-29T02:18:18;87.03;;;10.87;;
805;SDS011;385;48.502;9.230;2022-07-29T02:20:47;64.73;;;10.80;;
805;SDS011;385;48.502;9.230;2022-07-29T02:23:16;96.40;;;11.97;;
805;SDS011;385;48.502;9.230;2022-07-29T02:25:44;64.80;;;10.17;;
805;SDS011;385;48.502;9.230;2022-07-29T02:28:13;51.73;;;9.40;;
805;SDS011;385;48.502;9.230;2022-07-29T02:30:42;70.77;;;10.33;;
805;SDS011;385;48.502;9.230;2022-07-29T02:33:10;54.43;;;9.90;;
805;SDS011;385;48.502;9.230;2022-07-29T02:35:40;85.67;;;11.83;;
805;SDS011;385;48.502;9.230;2022-07-29T02:38:09;62.07;;;10.50;;
805;SDS011;385;48.502;9.230;2022-07-29T02:40:56;73.20;;;11.70;;
805;SDS011;385;48.502;9.230;2022-07-29T02:43:24;81.10;;;11.33;;
805;SDS011;385;48.502;9.230;2022-07-29T02:45:51;64.43;;;11.43;;
805;SDS011;385;48.502;9.230;2022-07-29T02:48:20;74.87;;;11.43;;
805;SDS011;385;48.502;9.230;2022-07-29T02:50:50;90.97;;;11.30;;
805;SDS011;385;48.502;9.230;2022-07-29T02:53:18;94.63;;;11.40;;
805;SDS011;385;48.502;9.230;2022-07-29T02:55:48;74.43;;;9.37;;
805;SDS011;385;48.502;9.230;2022-07-29T02:58:21;88.20;;;10.30;;
805;SDS011;385;48.502;9.230;2022-07-29T03:00:53;111.03;;;11.33;;
805;SDS011;385;48.502;9.230;2022-07-29T03:03:22;76.20;;;9.50;;
805;SDS011;385;48.502;9.230;2022-07-29T03:05:53;77.23;;;10.50;;
805;SDS011;385;48.502;9.230;2022-07-29T03:08:21;73.83;;;9.40;;
805;SDS011;385;48.502;9.230;2022-07-29T03:10:49;89.10;;;10.10;;
805;SDS011;385;48.502;9.230;2022-07-29T03:13:18;93.40;;;10.53;;
805;SDS011;385;48.502;9.230;2022-07-29T03:15:45;98.40;;;11.10;;
805;SDS011;385;48.502;9.230;2022-07-29T03:18:13;73.17;;;9.20;;
805;SDS011;385;48.502;9.230;2022-07-29T03:20:40;96.00;;;9.90;;
805;SDS011;385;48.502;9.230;2022-07-29T03:23:08;116.43;;;11.23;;
805;SDS011;385;48.502;9.230;2022-07-29T03:25:35;117.67;;;10.80;;
805;SDS011;385;48.502;9.230;2022-07-29T03:28:03;98.43;;;10.53;;
805;SDS011;385;48.502;9.230;2022-07-29T03:30:30;97.63;;;9.87;;
805;SDS011;385;48.502;9.230;2022-07-29T03:32:57;110.00;;;11.67;;
805;SDS011;385;48.502;9.230;2022-07-29T03:35:24;87.03;;;9.70;;
805;SDS011;385;48.502;9.230;2022-07-29T03:37:51;89.67;;;9.97;;
805;SDS011;385;48.502;9.230;2022-07-29T03:40:21;114.13;;;10.30;;
805;SDS011;385;48.502;9.230;2022-07-29T03:42:49;71.03;;;9.10;;
805;SDS011;385;48.502;9.230;2022-07-29T03:45:17;83.80;;;9.00;;
805;SDS011;385;48.502;9.230;2022-07-29T03:47:45;93.43;;;9.67;;
805;SDS011;385;48.502;9.230;2022-07-29T03:50:14;71.57;;;8.47;;
805;SDS011;385;48.502;9.230;2022-07-29T03:52:41;84.70;;;10.30;;
805;SDS011;385;48.502;9.230;2022-07-29T03:55:09;84.00;;;8.23;;
805;SDS011;385;48.502;9.230;2022-07-29T03:57:37;78.80;;;9.23;;
805;SDS011;385;48.502;9.230;2022-07-29T04:00:08;93.57;;;9.10;;
805;SDS011;385;48.502;9.230;2022-07-29T04:02:35;105.90;;;9.13;;
805;SDS011;385;48.502;9.230;2022-07-29T04:05:03;169.13;;;11.83;;
805;SDS011;385;48.502;9.230;2022-07-29T04:07:30;87.50;;;8.63;;
805;SDS011;385;48.502;9.230;2022-07-29T04:09:58;101.80;;;9.17;;
805;SDS011;385;48.502;9.230;2022-07-29T04:12:24;63.43;;;7.23;;
805;SDS011;385;48.502;9.230;2022-07-29T04:14:52;79.17;;;8.20;;
805;SDS011;385;48.502;9.230;2022-07-29T04:17:19;92.97;;;9.57;;
805;SDS011;385;48.502;9.230;2022-07-29T04:19:46;84.73;;;8.40;;
805;SDS011;385;48.502;9.230;2022-07-29T04:22:13;88.70;;;8.80;;
805;SDS011;385;48.502;9.230;2022-07-29T04:24:40;90.87;;;9.07;;
805;SDS011;385;48.502;9.230;2022-07-29T04:27:07;110.60;;;9.63;;
805;SDS011;385;48.502;9.230;2022-07-29T04:29:35;81.17;;;9.87;;
805;SDS011;385;48.502;9.230;2022-07-29T04:32:03;94.63;;;9.67;;
805;SDS011;385;48.502;9.230;2022-07-29T04:34:30;75.00;;;9.50;;
805;SDS011;385;48.502;9.230;2022-07-29T04:36:57;61.90;;;7.20;;
805;SDS011;385;48.502;9.230;2022-07-29T04:39:25;89.70;;;8.33;;
805;SDS011;385;48.502;9.230;2022-07-29T04:41:52;125.43;;;9.93;;
805;SDS011;385;48.502;9.230;2022-07-29T04:44:19;101.10;;;9.40;;
805;SDS011;385;48.502;9.230;2022-07-29T04:46:46;95.23;;;9.10;;
805;SDS011;385;48.502;9.230;2022-07-29T04:49:14;72.43;;;8.27;;
805;SDS011;385;48.502;9.230;2022-07-29T04:51:41;78.17;;;9.30;;
805;SDS011;385;48.502;9.230;2022-07-29T04:54:08;86.13;;;9.07;;
805;SDS011;385;48.502;9.230;2022-07-29T04:56:36;62.07;;;8.40;;
805;SDS011;385;48.502;9.230;2022-07-29T04:59:03;80.13;;;9.17;;
805;SDS011;385;48.502;9.230;2022-07-29T05:01:31;85.57;;;9.70;;
805;SDS011;385;48.502;9.230;2022-07-29T05:03:58;116.33;;;11.20;;
805;SDS011;385;48.502;9.230;2022-07-29T05:06:26;107.67;;;10.00;;
805;SDS011;385;48.502;9.230;2022-07-29T05:08:54;96.80;;;10.00;;
805;SDS011;385;48.502;9.230;2022-07-29T05:11:21;97.73;;;11.33;;
805;SDS011;385;48.502;9.230;2022-07-29T05:13:48;105.70;;;11.43;;
805;SDS011;385;48.502;9.230;2022-07-29T05:16:15;103.33;;;11.07;;
805;SDS011;385;48.502;9.230;2022-07-29T05:18:42;79.07;;;10.70;;
805;SDS011;385;48.502;9.230;2022-07-29T05:21:09;88.23;;;11.40;;
805;SDS011;385;48.502;9.230;2022-07-29T05:23:38;75.77;;;11.10;;
805;SDS011;385;48.502;9.230;2022-07-29T05:28:51;78.43;;;10.27;;
805;SDS011;385;48.502;9.230;2022-07-29T05:31:19;87.07;;;10.20;;
805;SDS011;385;48.502;9.230;2022-07-29T05:33:46;96.40;;;11.07;;
805;SDS011;385;48.502;9.230;2022-07-29T05:36:13;68.87;;;9.90;;
805;SDS011;385;48.502;9.230;2022-07-29T05:38:42;101.83;;;11.67;;
805;SDS011;385;48.502;9.230;2022-07-29T05:41:09;83.30;;;10.17;;
805;SDS011;385;48.502;9.230;2022-07-29T05:43:36;76.47;;;11.07;;
805;SDS011;385;48.502;9.230;2022-07-29T05:46:03;96.17;;;10.67;;
805;SDS011;385;48.502;9.230;2022-07-29T05:48:30;84.70;;;10.37;;
805;SDS011;385;48.502;9.230;2022-07-29T05:50:58;103.67;;;11.17;;
805;SDS011;385;48.502;9.230;2022-07-29T05:53:25;98.90;;;11.27;;
805;SDS011;385;48.502;9.230;2022-07-29T05:55:53;98.93;;;11.00;;
805;SDS011;385;48.502;9.230;2022-07-29T05:58:20;78.10;;;10.30;;
805;SDS011;385;48.502;9.230;2022-07-29T06:00:48;95.37;;;10.33;;
805;SDS011;385;48.502;9.230;2022-07-29T06:03:15;94.80;;;9.57;;
805;SDS011;385;48.502;9.230;2022-07-29T06:05:42;87.50;;;9.30;;
805;SDS011;385;48.502;9.230;2022-07-29T06:08:09;76.87;;;9.00;;
805;SDS011;385;48.502;9.230;2022-07-29T06:10:36;94.37;;;10.23;;
805;SDS011;385;48.502;9.230;2022-07-29T06:13:04;85.83;;;9.80;;
805;SDS011;385;48.502;9.230;2022-07-29T06:15:31;87.87;;;9.87;;
805;SDS011;385;48.502;9.230;2022-07-29T06:17:59;92.10;;;9.20;;
805;SDS011;385;48.502;9.230;2022-07-29T06:20:26;92.17;;;8.97;;
805;SDS011;385;48.502;9.230;2022-07-29T06:22:54;95.50;;;9.87;;
805;SDS011;385;48.502;9.230;2022-07-29T06:25:21;101.57;;;9.67;;
805;SDS011;385;48.502;9.230;2022-07-29T06:27:48;56.10;;;7.80;;
805;SDS011;385;48.502;9.230;2022-07-29T06:30:17;74.83;;;7.97;;
805;SDS011;385;48.502;9.230;2022-07-29T06:32:44;79.47;;;8.67;;
805;SDS011;385;48.502;9.230;2022-07-29T06:35:11;86.67;;;9.20;;
805;SDS011;385;48.502;9.230;2022-07-29T06:37:38;132.70;;;9.83;;
805;SDS011;385;48.502;9.230;2022-07-29T06:40:05;96.13;;;8.70;;
805;SDS011;385;48.502;9.230;2022-07-29T06:42:50;103.77;;;8.50;;
805;SDS011;385;48.502;9.230;2022-07-29T06:45:19;59.13;;;7.40;;
805;SDS011;385;48.502;9.230;2022-07-29T06:47:50;81.93;;;8.20;;
805;SDS011;385;48.502;9.230;2022-07-29T06:50:19;85.70;;;8.30;;
805;SDS011;385;48.502;9.230;2022-07-29T06:52:46;89.40;;;8.10;;
805;SDS011;385;48.502;9.230;2022-07-29T06:55:13;97.90;;;8.27;;
805;SDS011;385;48.502;9.230;2022-07-29T06:57:40;82.53;;;7.93;;
805;SDS011;385;48.502;9.230;2022-07-29T07:00:08;75.60;;;7.10;;
805;SDS011;385;48.502;9.230;2022-07-29T07:02:37;68.10;;;6.60;;
805;SDS011;385;48.502;9.230;2022-07-29T07:05:04;140.10;;;8.83;;
805;SDS011;385;48.502;9.230;2022-07-29T07:07:32;87.40;;;6.93;;
805;SDS011;385;48.502;9.230;2022-07-29T07:09:59;76.83;;;7.13;;
805;SDS011;385;48.502;9.230;2022-07-29T07:12:26;81.13;;;6.73;;
805;SDS011;385;48.502;9.230;2022-07-29T07:14:53;75.20;;;7.23;;
805;SDS011;385;48.502;9.230;2022-07-29T07:17:20;93.73;;;7.40;;
805;SDS011;385;48.502;9.230;2022-07-29T07:19:48;89.77;;;7.20;;
805;SDS011;385;48.502;9.230;2022-07-29T07:22:16;64.80;;;6.60;;
805;SDS011;385;48.502;9.230;2022-07-29T07:24:43;78.17;;;6.67;;
805;SDS011;385;48.502;9.230;2022-07-29T07:27:10;77.30;;;6.80;;
805;SDS011;385;48.502;9.230;2022-07-29T07:29:37;94.10;;;7.77;;
805;SDS011;385;48.502;9.230;2022-07-29T07:32:06;86.00;;;7.37;;
805;SDS011;385;48.502;9.230;2022-07-29T07:34:33;77.53;;;6.47;;
805;SDS011;385;48.502;9.230;2022-07-29T07:37:01;82.13;;;7.37;;
805;SDS011;385;48.502;9.230;2022-07-29T07:39:28;78.07;;;7.27;;
805;SDS011;385;48.502;9.230;2022-07-29T07:41:56;66.40;;;6.33;;
805;SDS011;385;48.502;9.230;2022-07-29T07:44:23;106.30;;;8.37;;
805;SDS011;385;48.502;9.230;2022-07-29T07:46:50;63.10;;;6.30;;
805;SDS011;385;48.502;9.230;2022-07-29T07:49:17;73.17;;;6.80;;
805;SDS011;385;48.502;9.230;2022-07-29T07:51:44;85.33;;;7.10;;
805;SDS011;385;48.502;9.230;2022-07-29T07:54:12;79.50;;;7.20;;
805;SDS011;385;48.502;9.230;2022-07-29T07:56:40;84.07;;;7.50;;
805;SDS011;385;48.502;9.230;2022-07-29T07:59:06;99.33;;;7.60;;
805;SDS011;385;48.502;9.230;2022-07-29T08:01:33;114.23;;;8.17;;
805;SDS011;385;48.502;9.230;2022-07-29T08:04:00;72.37;;;6.97;;
805;SDS011;385;48.502;9.230;2022-07-29T08:06:28;76.93;;;7.50;;
805;SDS011;385;48.502;9.230;2022-07-29T08:08:55;115.33;;;8.60;;
805;SDS011;385;48.502;9.230;2022-07-29T08:11:25;88.80;;;8.93;;
805;SDS011;385;48.502;9.230;2022-07-29T08:13:52;65.93;;;6.80;;
805;SDS011;385;48.502;9.230;2022-07-29T08:16:19;128.10;;;17.27;;
805;SDS011;385;48.502;9.230;2022-07-29T08:18:46;106.63;;;9.67;;
805;SDS011;385;48.502;9.230;2022-07-29T08:21:13;86.77;;;15.10;;
805;SDS011;385;48.502;9.230;2022-07-29T08:23:41;104.47;;;14.57;;
805;SDS011;385;48.502;9.230;2022-07-29T08:26:14;86.13;;;9.37;;
805;SDS011;385;48.502;9.230;2022-07-29T08:28:43;106.73;;;9.23;;
805;SDS011;385;48.502;9.230;2022-07-29T08:31:11;80.53;;;9.30;;
805;SDS011;385;48.502;9.230;2022-07-29T08:33:38;105.17;;;9.40;;
805;SDS011;385;48.502;9.230;2022-07-29T08:36:05;90.03;;;8.13;;
805;SDS011;385;48.502;9.230;2022-07-29T08:38:33;91.13;;;7.70;;
805;SDS011;385;48.502;9.230;2022-07-29T08:41:00;93.47;;;7.77;;
805;SDS011;385;48.502;9.230;2022-07-29T08:43:28;78.93;;;7.77;;
805;SDS011;385;48.502;9.230;2022-07-29T08:45:56;118.37;;;9.13;;
805;SDS011;385;48.502;9.230;2022-07-29T08:48:23;89.27;;;8.07;;
805;SDS011;385;48.502;9.230;2022-07-29T08:50:52;67.13;;;6.73;;
805;SDS011;385;48.502;9.230;2022-07-29T08:53:19;70.70;;;7.63;;
805;SDS011;385;48.502;9.230;2022-07-29T08:55:48;73.33;;;7.10;;
805;SDS011;385;48.502;9.230;2022-07-29T08:58:16;86.17;;;8.67;;
805;SDS011;385;48.502;9.230;2022-07-29T09:00:44;80.50;;;7.53;;
805;SDS011;385;48.502;9.230;2022-07-29T09:03:15;88.53;;;8.50;;
805;SDS011;385;48.502;9.230;2022-07-29T09:05:42;83.97;;;7.53;;
805;SDS011;385;48.502;9.230;2022-07-29T09:08:10;79.13;;;7.13;;
805;SDS011;385;48.502;9.230;2022-07-29T09:10:37;73.83;;;7.93;;
805;SDS011;385;48.502;9.230;2022-07-29T09:13:04;104.60;;;8.40;;
805;SDS011;385;48.502;9.230;2022-07-29T09:15:31;69.27;;;7.00;;
805;SDS011;385;48.502;9.230;2022-07-29T09:17:58;72.20;;;7.60;;
805;SDS011;385;48.502;9.230;2022-07-29T09:20:27;76.83;;;7.43;;
805;SDS011;385;48.502;9.230;2022-07-29T09:23:15;114.97;;;9.10;;
805;SDS011;385;48.502;9.230;2022-07-29T09:25:42;79.30;;;7.57;;
805;SDS011;385;48.502;9.230;2022-07-29T09:28:09;66.97;;;7.30;;
805;SDS011;385;48.502;9.230;2022-07-29T09:30:37;60.23;;;6.80;;
805;SDS011;385;48.502;9.230;2022-07-29T09:33:16;72.60;;;7.27;;
805;SDS011;385;48.502;9.230;2022-07-29T09:35:45;80.20;;;7.50;;
805;SDS011;385;48.502;9.230;2022-07-29T09:38:12;73.53;;;7.10;;
805;SDS011;385;48.502;9.230;2022-07-29T09:40:39;106.90;;;9.07;;
805;SDS011;385;48.502;9.230;2022-07-29T09:43:10;77.80;;;7.80;;
805;SDS011;385;48.502;9.230;2022-07-29T09:45:38;104.27;;;8.90;;
805;SDS011;385;48.502;9.230;2022-07-29T09:48:12;79.47;;;7.93;;
805;SDS011;385;48.502;9.230;2022-07-29T09:50:40;86.88;;;9.35;;
805;SDS011;385;48.502;9.230;2022-07-29T09:53:10;86.73;;;8.60;;
805;SDS011;385;48.502;9.230;2022-07-29T09:55:47;84.00;;;7.57;;
805;SDS011;385;48.502;9.230;2022-07-29T09:58:15;77.20;;;9.50;;
805;SDS011;385;48.502;9.230;2022-07-29T10:00:42;81.50;;;8.00;;
805;SDS011;385;48.502;9.230;2022-07-29T10:03:10;73.47;;;7.90;;
805;SDS011;385;48.502;9.230;2022-07-29T10:05:37;118.60;;;10.10;;
805;SDS011;385;48.502;9.230;2022-07-29T10:08:07;79.27;;;8.23;;
805;SDS011;385;48.502;9.230;2022-07-29T10:10:36;106.60;;;9.70;;
805;SDS011;385;48.502;9.230;2022-07-29T10:13:04;73.90;;;7.67;;
805;SDS011;385;48.502;9.230;2022-07-29T10:15:32;91.73;;;8.70;;
805;SDS011;385;48.502;9.230;2022-07-29T10:18:02;63.90;;;7.43;;
805;SDS011;385;48.502;9.230;2022-07-29T10:20:30;74.33;;;8.23;;
805;SDS011;385;48.502;9.230;2022-07-29T10:22:57;73.67;;;8.83;;
805;SDS011;385;48.502;9.230;2022-07-29T10:25:24;102.30;;;9.40;;
805;SDS011;385;48.502;9.230;2022-07-29T10:27:53;95.27;;;9.17;;
805;SDS011;385;48.502;9.230;2022-07-29T10:30:21;93.87;;;9.50;;
805;SDS011;385;48.502;9.230;2022-07-29T10:32:57;78.53;;;8.67;;
805;SDS011;385;48.502;9.230;2022-07-29T10:35:31;93.63;;;9.67;;
805;SDS011;385;48.502;9.230;2022-07-29T10:40:50;90.77;;;9.40;;
805;SDS011;385;48.502;9.230;2022-07-29T10:43:43;84.07;;;8.90;;
805;SDS011;385;48.502;9.230;2022-07-29T10:46:13;88.63;;;8.80;;
805;SDS011;385;48.502;9.230;2022-07-29T10:51:26;110.30;;;10.10;;
805;SDS011;385;48.502;9.230;2022-07-29T10:54:40;101.10;;;9.43;;
805;SDS011;385;48.502;9.230;2022-07-29T10:57:12;73.47;;;8.00;;
805;SDS011;385;48.502;9.230;2022-07-29T10:59:41;106.23;;;9.90;;
805;SDS011;385;48.502;9.230;2022-07-29T11:05:12;84.23;;;8.80;;
805;SDS011;385;48.502;9.230;2022-07-29T11:10:23;79.43;;;8.77;;
805;SDS011;385;48.502;9.230;2022-07-29T11:12:51;81.47;;;8.00;;
805;SDS011;385;48.502;9.230;2022-07-29T11:15:20;106.10;;;9.13;;
805;SDS011;385;48.502;9.230;2022-07-29T11:18:03;82.93;;;8.17;;
805;SDS011;385;48.502;9.230;2022-07-29T11:20:31;82.43;;;8.63;;
805;SDS011;385;48.502;9.230;2022-07-29T11:22:58;80.63;;;8.70;;
805;SDS011;385;48.502;9.230;2022-07-29T11:25:25;67.10;;;7.97;;
805;SDS011;385;48.502;9.230;2022-07-29T11:27:52;56.33;;;7.33;;
805;SDS011;385;48.502;9.230;2022-07-29T11:30:22;58.87;;;6.80;;
805;SDS011;385;48.502;9.230;2022-07-29T11:33:19;71.13;;;7.80;;
805;SDS011;385;48.502;9.230;2022-07-29T11:36:06;70.10;;;7.60;;
805;SDS011;385;48.502;9.230;2022-07-29T11:38:34;64.03;;;7.30;;
805;SDS011;385;48.502;9.230;2022-07-29T11:41:20;88.10;;;8.30;;
805;SDS011;385;48.502;9.230;2022-07-29T11:43:49;65.37;;;7.33;;
805;SDS011;385;48.502;9.230;2022-07-29T11:46:19;69.67;;;8.20;;
805;SDS011;385;48.502;9.230;2022-07-29T11:49:06;108.23;;;9.57;;
805;SDS011;385;48.502;9.230;2022-07-29T11:51:33;59.03;;;7.60;;
805;SDS011;385;48.502;9.230;2022-07-29T11:54:01;77.83;;;7.97;;
805;SDS011;385;48.502;9.230;2022-07-29T11:56:29;77.97;;;7.90;;
805;SDS011;385;48.502;9.230;2022-07-29T11:59:07;85.20;;;9.23;;
805;SDS011;385;48.502;9.230;2022-07-29T12:01:36;96.07;;;9.20;;
805;SDS011;385;48.502;9.230;2022-07-29T12:04:03;79.23;;;8.63;;
805;SDS011;385;48.502;9.230;2022-07-29T12:06:31;83.70;;;9.17;;
805;SDS011;385;48.502;9.230;2022-07-29T12:08:58;82.77;;;9.17;;
805;SDS011;385;48.502;9.230;2022-07-29T12:11:25;75.23;;;9.50;;
805;SDS011;385;48.502;9.230;2022-07-29T12:13:52;51.63;;;7.63;;
805;SDS011;385;48.502;9.230;2022-07-29T12:16:20;89.50;;;9.10;;
805;SDS011;385;48.502;9.230;2022-07-29T12:18:55;63.30;;;8.53;;
805;SDS011;385;48.502;9.230;2022-07-29T12:21:23;94.77;;;9.60;;
805;SDS011;385;48.502;9.230;2022-07-29T12:23:54;66.93;;;8.00;;
805;SDS011;385;48.502;9.230;2022-07-29T12:26:21;98.70;;;9.73;;
805;SDS011;385;48.502;9.230;2022-07-29T12:28:48;76.30;;;8.70;;
805;SDS011;385;48.502;9.230;2022-07-29T12:31:15;100.27;;;10.37;;
805;SDS011;385;48.502;9.230;2022-07-29T12:33:43;101.20;;;12.10;;
805;SDS011;385;48.502;9.230;2022-07-29T12:36:19;118.13;;;13.50;;
805;SDS011;385;48.502;9.230;2022-07-29T12:38:47;91.20;;;17.80;;
805;SDS011;385;48.502;9.230;2022-07-29T12:41:14;83.10;;;13.40;;
805;SDS011;385;48.502;9.230;2022-07-29T12:43:51;76.00;;;9.70;;
805;SDS011;385;48.502;9.230;2022-07-29T12:46:19;63.20;;;8.63;;
805;SDS011;385;48.502;9.230;2022-07-29T12:48:49;68.00;;;9.27;;
805;SDS011;385;48.502;9.230;2022-07-29T12:51:25;101.73;;;10.57;;
805;SDS011;385;48.502;9.230;2022-07-29T12:54:02;113.03;;;10.20;;
805;SDS011;385;48.502;9.230;2022-07-29T12:56:29;73.10;;;8.70;;
805;SDS011;385;48.502;9.230;2022-07-29T12:58:56;55.70;;;8.13;;
805;SDS011;385;48.502;9.230;2022-07-29T13:01:23;76.67;;;8.90;;
805;SDS011;385;48.502;9.230;2022-07-29T13:03:53;91.30;;;9.67;;
805;SDS011;385;48.502;9.230;2022-07-29T13:06:30;79.17;;;8.93;;
805;SDS011;385;48.502;9.230;2022-07-29T13:09:00;51.43;;;8.30;;
805;SDS011;385;48.502;9.230;2022-07-29T13:11:28;54.93;;;7.93;;
805;SDS011;385;48.502;9.230;2022-07-29T13:13:55;65.17;;;7.80;;
805;SDS011;385;48.502;9.230;2022-07-29T13:16:23;83.90;;;8.43;;
805;SDS011;385;48.502;9.230;2022-07-29T13:19:02;73.50;;;8.70;;
805;SDS011;385;48.502;9.230;2022-07-29T13:21:31;113.73;;;10.07;;
805;SDS011;385;48.502;9.230;2022-07-29T13:23:58;97.57;;;9.33;;
805;SDS011;385;48.502;9.230;2022-07-29T13:26:25;79.63;;;7.77;;
805;SDS011;385;48.502;9.230;2022-07-29T13:28:53;98.33;;;9.23;;
805;SDS011;385;48.502;9.230;2022-07-29T13:31:20;93.13;;;9.30;;
805;SDS011;385;48.502;9.230;2022-07-29T13:33:47;89.13;;;8.90;;
805;SDS011;385;48.502;9.230;2022-07-29T13:36:14;124.10;;;10.50;;
805;SDS011;385;48.502;9.230;2022-07-29T13:38:43;94.87;;;9.07;;
805;SDS011;385;48.502;9.230;2022-07-29T13:41:11;90.37;;;8.27;;
805;SDS011;385;48.502;9.230;2022-07-29T13:43:38;113.83;;;9.43;;
805;SDS011;385;48.502;9.230;2022-07-29T13:46:04;107.87;;;9.10;;
805;SDS011;385;48.502;9.230;2022-07-29T13:48:31;96.37;;;8.77;;
805;SDS011;385;48.502;9.230;2022-07-29T13:50:58;122.20;;;9.30;;
805;SDS011;385;48.502;9.230;2022-07-29T13:53:26;99.77;;;8.33;;
805;SDS011;385;48.502;9.230;2022-07-29T13:55:55;85.57;;;7.50;;
805;SDS011;385;48.502;9.230;2022-07-29T13:58:22;119.80;;;8.57;;
805;SDS011;385;48.502;9.230;2022-07-29T14:00:49;120.00;;;9.27;;
805;SDS011;385;48.502;9.230;2022-07-29T14:03:16;92.33;;;7.93;;
805;SDS011;385;48.502;9.230;2022-07-29T14:05:43;140.33;;;9.47;;
805;SDS011;385;48.502;9.230;2022-07-29T14:08:10;119.37;;;9.07;;
805;SDS011;385;48.502;9.230;2022-07-29T14:10:37;150.47;;;9.70;;
805;SDS011;385;48.502;9.230;2022-07-29T14:13:06;106.70;;;8.77;;
805;SDS011;385;48.502;9.230;2022-07-29T14:15:33;113.07;;;8.70;;
805;SDS011;385;48.502;9.230;2022-07-29T14:18:00;109.97;;;8.93;;
805;SDS011;385;48.502;9.230;2022-07-29T14:20:27;78.40;;;7.70;;
805;SDS011;385;48.502;9.230;2022-07-29T14:22:55;69.63;;;7.03;;
805;SDS011;385;48.502;9.230;2022-07-29T14:25:23;94.53;;;8.63;;
805;SDS011;385;48.502;9.230;2022-07-29T14:27:50;89.43;;;8.37;;
805;SDS011;385;48.502;9.230;2022-07-29T14:30:20;93.53;;;7.87;;
805;SDS011;385;48.502;9.230;2022-07-29T14:32:47;90.67;;;8.13;;
805;SDS011;385;48.502;9.230;2022-07-29T14:35:14;127.20;;;9.50;;
805;SDS011;385;48.502;9.230;2022-07-29T14:37:42;86.63;;;7.73;;
805;SDS011;385;48.502;9.230;2022-07-29T14:40:09;87.27;;;8.67;;
805;SDS011;385;48.502;9.230;2022-07-29T14:42:36;76.10;;;7.57;;
805;SDS011;385;48.502;9.230;2022-07-29T14:45:04;86.07;;;7.60;;
805;SDS011;385;48.502;9.230;2022-07-29T14:47:33;87.87;;;8.10;;
805;SDS011;385;48.502;9.230;2022-07-29T14:50:00;100.93;;;8.03;;
805;SDS011;385;48.502;9.230;2022-07-29T14:52:27;120.50;;;9.80;;
805;SDS011;385;48.502;9.230;2022-07-29T14:54:54;127.03;;;9.33;;
805;SDS011;385;48.502;9.230;2022-07-29T14:57:21;122.63;;;9.57;;
805;SDS011;385;48.502;9.230;2022-07-29T14:59:48;68.80;;;7.70;;
805;SDS011;385;48.502;9.230;2022-07-29T15:02:16;76.80;;;7.73;;
805;SDS011;385;48.502;9.230;2022-07-29T15:04:44;83.70;;;7.43;;
805;SDS011;385;48.502;9.230;2022-07-29T15:07:12;85.10;;;8.40;;
805;SDS011;385;48.502;9.230;2022-07-29T15:09:40;79.97;;;8.30;;
805;SDS011;385;48.502;9.230;2022-07-29T15:12:07;70.67;;;7.70;;
805;SDS011;385;48.502;9.230;2022-07-29T15:14:36;80.13;;;8.40;;
805;SDS011;385;48.502;9.230;2022-07-29T15:17:03;95.47;;;8.30;;
805;SDS011;385;48.502;9.230;2022-07-29T15:19:30;103.20;;;8.83;;
805;SDS011;385;48.502;9.230;2022-07-29T15:21:59;97.97;;;8.63;;
805;SDS011;385;48.502;9.230;2022-07-29T15:24:26;106.50;;;8.97;;
805;SDS011;385;48.502;9.230;2022-07-29T15:26:53;71.50;;;7.77;;
805;SDS011;385;48.502;9.230;2022-07-29T15:29:20;84.53;;;8.50;;
805;SDS011;385;48.502;9.230;2022-07-29T15:31:47;83.33;;;8.40;;
805;SDS011;385;48.502;9.230;2022-07-29T15:34:14;118.67;;;9.17;;
805;SDS011;385;48.502;9.230;2022-07-29T15:36:41;113.67;;;9.43;;
805;SDS011;385;48.502;9.230;2022-07-29T15:39:10;87.83;;;8.47;;
805;SDS011;385;48.502;9.230;2022-07-29T15:41:37;106.40;;;9.13;;
805;SDS011;385;48.502;9.230;2022-07-29T15:44:04;104.20;;;9.17;;
805;SDS011;385;48.502;9.230;2022-07-29T15:46:31;102.77;;;8.90;;
805;SDS011;385;48.502;9.230;2022-07-29T15:49:16;85.73;;;8.33;;